Time;durP1;ratioP1;P1;durP2;ratioP2;P2;SDS_P1;SDS_P2;PMS_P1;PMS_P2;Temp;Humidity;BMP_temperature;BMP_pressure;BME280_temperature;BME280_humidity;BME280_pressure;Samples;Min_cycle;Max_cycle;Signal;HPM_P1;HPM_P2
2024/03/12 01:48:50;;;;;;;90.25;44.58;;;;;;;7.19;100.00;100480.13;5375226;22;20054;-80
2024/03/12 01:51:17;;;;;;;84.47;43.03;;;;;;;7.15;100.00;100476.03;5000992;28;20461;-78
2024/03/12 01:53:54;;;;;;;83.53;42.45;;;;;;;7.19;100.00;100468.72;4997615;28;20054;-80
2024/03/12 01:56:28;;;;;;;82.05;43.30;;;;;;;7.14;100.00;100481.41;5003033;28;20117;-79
2024/03/12 01:59:03;;;;;;;90.18;41.92;;;;;;;7.17;100.00;100479.38;5001961;28;20504;-80
2024/03/12 02:01:29;;;;;;;91.82;44.15;;;;;;;7.19;100.00;100480.13;5014299;22;20073;-79
2024/03/12 02:03:58;;;;;;;88.10;42.28;;;;;;;7.15;100.00;100477.84;4991681;28;20097;-80
2024/03/12 02:06:26;;;;;;;89.65;44.90;;;;;;;7.22;100.00;100489.56;4995732;28;20100;-79
2024/03/12 02:08:53;;;;;;;84.85;44.55;;;;;;;7.28;100.00;100489.13;4996189;28;20113;-79
2024/03/12 02:11:20;;;;;;;97.78;44.72;;;;;;;7.24;100.00;100491.13;4995398;28;20461;-79
2024/03/12 02:13:51;;;;;;;89.90;46.22;;;;;;;7.25;100.00;100487.53;4995800;28;20061;-78
2024/03/12 02:16:17;;;;;;;99.70;49.20;;;;;;;7.19;100.00;100492.41;4997331;28;20129;-79
2024/03/12 02:18:44;;;;;;;91.53;45.75;;;;;;;7.26;100.00;100497.13;5015587;28;20109;-78
2024/03/12 02:21:12;;;;;;;95.25;45.05;;;;;;;7.22;100.00;100500.94;5015492;28;20046;-79
2024/03/12 02:23:41;;;;;;;88.40;45.40;;;;;;;7.26;100.00;100491.84;5016207;28;20034;-78
2024/03/12 02:26:09;;;;;;;91.53;43.97;;;;;;;7.29;100.00;100498.69;5015837;28;20103;-79
2024/03/12 02:28:36;;;;;;;81.50;41.63;;;;;;;7.24;100.00;100499.03;5002510;28;20077;-79
2024/03/12 02:31:04;;;;;;;79.80;39.42;;;;;;;7.21;100.00;100508.94;4998399;28;20054;-80
2024/03/12 02:33:31;;;;;;;80.00;40.17;;;;;;;7.19;100.00;100516.09;4997998;28;20104;-79
2024/03/12 02:35:57;;;;;;;76.15;39.30;;;;;;;7.18;100.00;100512.63;4997763;28;20126;-78
2024/03/12 02:38:24;;;;;;;81.85;39.53;;;;;;;7.19;100.00;100519.59;4999546;28;20118;-79
2024/03/12 02:40:52;;;;;;;78.85;39.45;;;;;;;7.16;100.00;100517.19;4996127;28;20054;-77
2024/03/12 02:43:19;;;;;;;76.20;39.60;;;;;;;7.18;100.00;100520.53;4988881;28;20454;-78
2024/03/12 02:45:46;;;;;;;78.32;39.75;;;;;;;7.22;100.00;100518.50;4996108;28;20511;-81
2024/03/12 02:48:13;;;;;;;70.35;37.75;;;;;;;7.23;100.00;100518.44;4979562;28;20056;-79
2024/03/12 02:50:40;;;;;;;72.85;36.55;;;;;;;7.18;100.00;100525.78;4996875;28;20085;-80
2024/03/12 02:53:07;;;;;;;70.00;35.90;;;;;;;7.14;100.00;100528.78;4989331;28;20279;-80
2024/03/12 02:55:34;;;;;;;64.75;31.00;;;;;;;7.12;99.40;100522.81;4996975;28;20061;-80
2024/03/12 02:58:04;;;;;;;54.03;27.05;;;;;;;7.08;98.42;100535.34;4996386;28;20469;-79
2024/03/12 03:00:31;;;;;;;50.88;24.00;;;;;;;7.09;98.73;100537.84;4994995;28;20078;-79
2024/03/12 03:02:57;;;;;;;33.72;19.60;;;;;;;7.07;97.33;100538.94;4995756;28;20089;-79
2024/03/12 03:05:24;;;;;;;40.45;22.75;;;;;;;7.00;98.31;100543.78;4995493;28;20474;-79
2024/03/12 03:07:51;;;;;;;43.85;23.42;;;;;;;6.97;99.27;100546.66;4996486;28;20081;-78
2024/03/12 03:10:17;;;;;;;42.58;24.42;;;;;;;7.01;99.20;100545.50;4996754;28;20529;-79
2024/03/12 03:12:44;;;;;;;47.42;26.95;;;;;;;6.99;99.39;100542.13;4996072;28;20141;-79
2024/03/12 03:15:12;;;;;;;54.20;27.70;;;;;;;6.99;100.00;100547.38;4996631;28;20439;-79
2024/03/12 03:17:39;;;;;;;59.97;28.98;;;;;;;6.98;100.00;100548.34;4995689;28;20086;-79
2024/03/12 03:20:11;;;;;;;55.53;28.27;;;;;;;7.02;100.00;100552.44;4991006;28;20077;-79
2024/03/12 03:22:38;;;;;;;56.75;30.15;;;;;;;7.04;100.00;100550.50;4996780;28;20046;-78
2024/03/12 03:25:05;;;;;;;54.20;30.98;;;;;;;7.01;100.00;100549.88;4996473;28;20121;-79
2024/03/12 03:27:32;;;;;;;64.13;32.53;;;;;;;7.02;100.00;100554.22;4996713;28;20585;-78
2024/03/12 03:29:59;;;;;;;66.18;32.05;;;;;;;7.08;100.00;100551.97;4997207;28;20374;-78
2024/03/12 03:32:28;;;;;;;62.33;31.80;;;;;;;7.10;100.00;100557.13;4999312;28;20114;-79
2024/03/12 03:34:54;;;;;;;57.17;31.63;;;;;;;7.07;100.00;100554.72;4994285;28;20061;-79
2024/03/12 03:37:21;;;;;;;59.70;31.50;;;;;;;7.08;100.00;100562.50;4999508;28;20046;-78
2024/03/12 03:39:48;;;;;;;61.67;31.48;;;;;;;7.10;99.51;100565.03;5000227;28;20427;-79
2024/03/12 03:42:15;;;;;;;57.17;31.73;;;;;;;7.15;98.41;100562.88;4999812;28;20145;-79
2024/03/12 03:44:41;;;;;;;56.05;29.60;;;;;;;7.05;99.02;100573.25;5000121;28;20134;-79
2024/03/12 03:47:08;;;;;;;59.00;31.70;;;;;;;7.02;98.85;100568.22;4995969;28;20149;-77
2024/03/12 03:49:36;;;;;;;59.22;33.28;;;;;;;6.94;99.20;100562.69;4999889;28;20137;-79
2024/03/12 03:52:03;;;;;;;57.83;32.17;;;;;;;7.01;99.93;100577.06;4998908;28;20580;-79
2024/03/12 03:54:29;;;;;;;56.15;31.70;;;;;;;6.97;99.75;100567.72;4999066;28;20101;-80
2024/03/12 03:56:56;;;;;;;52.67;30.60;;;;;;;7.05;99.06;100572.41;4999426;28;20453;-78
2024/03/12 03:59:23;;;;;;;52.08;30.83;;;;;;;7.03;98.98;100571.69;4997463;28;20074;-78
2024/03/12 04:01:50;;;;;;;52.08;28.95;;;;;;;7.02;98.61;100577.91;4999164;28;20565;-78
2024/03/12 04:04:18;;;;;;;51.00;28.10;;;;;;;7.03;98.05;100582.22;4990898;28;20137;-79
2024/03/12 04:06:47;;;;;;;51.85;28.67;;;;;;;7.00;98.20;100590.31;5000752;28;20047;-80
2024/03/12 04:09:15;;;;;;;46.95;27.83;;;;;;;6.96;98.50;100594.94;4999893;28;20060;-79
2024/03/12 04:11:43;;;;;;;52.47;29.40;;;;;;;7.05;97.67;100594.31;4999776;28;20054;-79
2024/03/12 04:14:10;;;;;;;50.53;28.10;;;;;;;6.98;98.21;100598.34;4998361;28;20073;-79
2024/03/12 04:16:37;;;;;;;49.33;26.17;;;;;;;6.96;98.31;100602.84;4999360;28;20129;-79
2024/03/12 04:19:04;;;;;;;45.33;27.40;;;;;;;7.00;97.90;100606.94;5000160;28;20125;-78
2024/03/12 04:21:32;;;;;;;46.55;27.42;;;;;;;6.95;98.95;100606.44;4999011;28;20509;-79
2024/03/12 04:24:00;;;;;;;47.97;26.52;;;;;;;6.92;99.00;100618.97;4996927;28;20428;-80
2024/03/12 04:26:28;;;;;;;43.00;25.63;;;;;;;6.92;99.29;100622.47;5000132;28;20437;-79
2024/03/12 04:28:55;;;;;;;45.05;25.65;;;;;;;7.01;99.38;100627.06;4999670;28;20558;-79
2024/03/12 04:31:23;;;;;;;45.13;26.10;;;;;;;6.97;99.69;100630.88;4999703;28;20046;-79
2024/03/12 04:33:52;;;;;;;46.83;25.17;;;;;;;6.95;98.77;100635.38;4999607;28;20054;-78
2024/03/12 04:36:22;;;;;;;46.17;26.20;;;;;;;6.95;99.70;100638.00;5000552;28;20488;-78
2024/03/12 04:38:49;;;;;;;45.90;27.23;;;;;;;6.98;99.75;100637.78;4999701;28;20077;-79
2024/03/12 04:41:17;;;;;;;51.47;27.65;;;;;;;7.02;98.95;100636.63;5000022;28;20535;-79
2024/03/12 04:43:44;;;;;;;47.03;26.00;;;;;;;7.00;99.06;100641.16;5000185;28;20086;-78
2024/03/12 04:46:10;;;;;;;48.58;28.05;;;;;;;7.02;98.55;100646.31;4998822;28;20089;-79
2024/03/12 04:48:37;;;;;;;47.25;25.48;;;;;;;6.99;99.17;100647.38;4999465;28;20431;-78
2024/03/12 04:51:04;;;;;;;46.92;28.92;;;;;;;7.00;99.61;100648.19;4984670;28;20125;-78
2024/03/12 04:53:31;;;;;;;44.95;26.50;;;;;;;6.97;99.02;100654.53;4998910;28;20058;-79
2024/03/12 04:56:01;;;;;;;49.15;27.50;;;;;;;6.98;99.54;100650.13;5004034;28;20105;-79
2024/03/12 04:58:29;;;;;;;52.30;28.38;;;;;;;6.97;99.44;100656.34;5003836;28;20081;-78
2024/03/12 05:00:55;;;;;;;51.90;27.00;;;;;;;6.90;99.60;100658.53;4991135;28;20055;-78
2024/03/12 05:03:22;;;;;;;49.03;27.65;;;;;;;6.93;100.00;100663.59;4989997;28;20085;-78
2024/03/12 05:05:49;;;;;;;50.42;28.17;;;;;;;6.88;99.87;100660.47;4973644;28;20051;-79
2024/03/12 05:08:15;;;;;;;55.58;34.53;;;;;;;6.89;100.00;100667.41;4973638;28;20118;-77
2024/03/12 05:10:42;;;;;;;48.90;28.02;;;;;;;6.95;99.98;100666.09;4981842;28;20050;-79
2024/03/12 05:13:09;;;;;;;54.45;28.90;;;;;;;6.92;99.78;100672.44;4969293;28;20051;-78
2024/03/12 05:15:38;;;;;;;50.83;28.20;;;;;;;6.86;99.53;100678.13;4970096;28;20091;-78
2024/03/12 05:18:05;;;;;;;51.65;28.02;;;;;;;6.83;100.00;100676.56;4961006;28;20066;-78
2024/03/12 05:20:36;;;;;;;55.47;28.20;;;;;;;6.93;99.44;100682.00;4966803;28;20059;-78
2024/03/12 05:23:03;;;;;;;55.85;29.80;;;;;;;6.92;99.46;100682.97;4977233;28;20110;-78
2024/03/12 05:25:39;;;;;;;53.70;28.05;;;;;;;6.88;99.07;100680.66;4978228;28;20066;-77
2024/03/12 05:28:07;;;;;;;54.97;29.48;;;;;;;6.91;100.00;100694.41;4973029;28;20061;-78
2024/03/12 05:30:35;;;;;;;51.95;28.50;;;;;;;7.00;99.34;100699.03;4978199;28;20519;-78
2024/03/12 05:33:09;;;;;;;52.88;29.10;;;;;;;6.91;99.92;100696.22;4956396;28;20055;-78
2024/03/12 05:35:36;;;;;;;54.55;29.73;;;;;;;6.85;99.40;100702.75;4954690;29;20102;-78
2024/03/12 05:38:02;;;;;;;55.35;30.33;;;;;;;6.87;99.79;100694.75;4969193;28;20054;-78
2024/03/12 05:40:42;;;;;;;54.20;28.48;;;;;;;6.97;98.68;100707.16;4966152;28;20058;-78
2024/03/12 05:48:39;;;;;;;58.97;31.10;;;;;;;6.97;97.95;100707.16;4964964;28;20536;-79
2024/03/12 05:51:07;;;;;;;72.65;33.03;;;;;;;6.92;98.77;100719.81;4978563;28;20539;-79
2024/03/12 05:53:34;;;;;;;59.70;30.05;;;;;;;6.86;99.08;100719.38;4974066;28;20051;-78
2024/03/12 05:56:01;;;;;;;65.85;32.13;;;;;;;6.83;99.47;100721.28;4958526;28;20083;-77
2024/03/12 05:58:27;;;;;;;55.63;30.23;;;;;;;6.84;99.30;100727.38;4967400;28;20142;-77
2024/03/12 06:00:54;;;;;;;53.58;29.73;;;;;;;6.90;99.56;100732.22;4945782;28;20094;-76
2024/03/12 06:03:20;;;;;;;58.95;31.10;;;;;;;6.93;98.43;100729.38;4953997;28;20093;-77
2024/03/12 06:05:49;;;;;;;61.85;35.03;;;;;;;6.95;97.48;100740.63;4969332;28;20477;-77
2024/03/12 06:08:16;;;;;;;57.85;28.40;;;;;;;6.97;97.41;100735.25;4953442;29;20145;-76
2024/03/12 06:10:42;;;;;;;51.58;27.88;;;;;;;6.86;97.75;100736.00;4967769;28;20370;-76
2024/03/12 06:13:12;;;;;;;57.85;29.50;;;;;;;6.85;97.80;100739.59;4973517;28;20054;-76
2024/03/12 06:15:39;;;;;;;49.72;27.38;;;;;;;6.88;97.59;100739.38;4964678;28;20047;-78
2024/03/12 06:18:05;;;;;;;56.60;28.60;;;;;;;6.90;97.42;100744.53;4975102;28;20141;-78
2024/03/12 06:20:32;;;;;;;51.67;27.80;;;;;;;6.93;97.89;100752.22;4954804;28;20051;-80
2024/03/12 06:23:00;;;;;;;50.38;27.33;;;;;;;6.88;97.62;100760.44;4958302;28;20051;-78
2024/03/12 06:25:26;;;;;;;48.92;27.33;;;;;;;6.93;97.95;100760.94;4975231;28;20134;-77
2024/03/12 06:27:53;;;;;;;50.22;27.95;;;;;;;6.89;97.66;100772.63;4954438;28;20138;-77
2024/03/12 06:30:20;;;;;;;51.80;28.27;;;;;;;6.88;98.07;100767.47;4962297;28;20463;-77
2024/03/12 06:32:46;;;;;;;53.47;29.20;;;;;;;6.79;98.61;100771.59;4961035;28;20133;-79
2024/03/12 06:35:13;;;;;;;56.92;28.92;;;;;;;6.87;98.57;100778.94;4975594;28;20150;-77
2024/03/12 06:37:39;;;;;;;59.40;29.55;;;;;;;6.81;98.94;100785.47;4975371;28;20506;-78
2024/03/12 06:40:09;;;;;;;56.22;27.30;;;;;;;6.84;99.14;100787.88;4956759;28;20134;-77
2024/03/12 06:42:37;;;;;;;49.47;27.73;;;;;;;6.70;99.65;100786.22;4974262;28;20058;-77
2024/03/12 06:45:04;;;;;;;55.90;29.05;;;;;;;6.69;100.00;100794.19;4974711;28;20088;-77
2024/03/12 06:47:36;;;;;;;60.22;30.17;;;;;;;6.70;100.00;100796.75;4975022;28;20134;-77
2024/03/12 06:50:07;;;;;;;57.42;31.33;;;;;;;6.64;100.00;100798.94;4962409;28;20057;-78
2024/03/12 06:52:33;;;;;;;53.97;30.13;;;;;;;6.77;100.00;100805.03;4961027;28;20051;-79
2024/03/12 06:55:04;;;;;;;58.50;30.85;;;;;;;6.76;100.00;100817.34;4975437;28;20529;-77
2024/03/12 06:57:34;;;;;;;61.70;30.45;;;;;;;6.72;100.00;100818.50;4947831;28;20051;-78
2024/03/12 07:00:09;;;;;;;55.58;29.30;;;;;;;6.73;100.00;100822.81;4966242;28;20174;-77
2024/03/12 07:02:38;;;;;;;60.70;30.52;;;;;;;6.68;100.00;100821.44;4952396;28;20065;-76
2024/03/12 07:05:06;;;;;;;64.78;33.15;;;;;;;6.64;100.00;100830.47;4953457;28;20059;-77
2024/03/12 07:07:33;;;;;;;67.20;32.83;;;;;;;6.62;100.00;100824.50;4973969;28;20086;-77
2024/03/12 07:10:03;;;;;;;65.97;31.77;;;;;;;6.64;100.00;100830.47;4974205;28;20050;-78
2024/03/12 07:12:30;;;;;;;69.32;33.28;;;;;;;6.66;100.00;100839.13;4975399;28;20051;-78
2024/03/12 07:14:58;;;;;;;62.08;30.70;;;;;;;6.69;100.00;100834.47;4955322;28;20456;-78
2024/03/12 07:17:27;;;;;;;64.50;32.38;;;;;;;6.70;100.00;100835.34;4953922;28;20058;-78
2024/03/12 07:19:54;;;;;;;65.75;32.53;;;;;;;6.69;100.00;100834.47;4960633;28;20052;-77
2024/03/12 07:22:20;;;;;;;68.18;32.03;;;;;;;6.73;100.00;100837.75;4972299;28;20141;-78
2024/03/12 07:24:47;;;;;;;63.03;30.92;;;;;;;6.71;100.00;100837.03;4974188;28;20109;-77
2024/03/12 07:27:14;;;;;;;58.30;29.23;;;;;;;6.78;100.00;100840.91;4975129;28;20058;-77
2024/03/12 07:29:43;;;;;;;54.83;27.38;;;;;;;6.71;99.61;100835.22;4973539;28;20132;-78
2024/03/12 07:32:13;;;;;;;61.50;28.92;;;;;;;6.76;99.71;100840.19;4972930;28;20324;-77
2024/03/12 07:34:40;;;;;;;58.97;29.73;;;;;;;6.72;99.98;100839.53;4960806;28;20466;-79
2024/03/12 07:37:07;;;;;;;56.60;27.95;;;;;;;6.73;99.03;100841.22;4958382;29;20050;-78
2024/03/12 07:39:35;;;;;;;60.22;29.45;;;;;;;6.71;98.83;100853.63;4968878;28;20063;-77
2024/03/12 07:42:06;;;;;;;65.22;30.42;;;;;;;6.75;99.44;100854.28;4974257;28;20055;-77
2024/03/12 07:44:33;;;;;;;62.80;31.13;;;;;;;6.80;99.26;100850.38;4962742;28;20083;-77
2024/03/12 07:47:00;;;;;;;65.03;31.13;;;;;;;6.87;98.49;100855.22;4953788;29;20727;-77
2024/03/12 07:49:28;;;;;;;67.13;31.73;;;;;;;6.81;98.40;100857.31;4957687;28;20481;-77
2024/03/12 07:51:55;;;;;;;64.10;30.40;;;;;;;6.93;97.79;100858.28;4966966;28;20051;-77
2024/03/12 07:54:21;;;;;;;64.53;31.00;;;;;;;6.84;97.64;100862.38;4957695;28;20059;-78
2024/03/12 07:56:49;;;;;;;61.85;30.38;;;;;;;6.82;98.94;100860.78;4973213;28;20055;-77
2024/03/12 07:59:17;;;;;;;67.60;30.33;;;;;;;6.89;98.97;100867.34;4956679;28;20047;-78
2024/03/12 08:01:47;;;;;;;70.90;33.55;;;;;;;6.83;98.67;100865.97;4981073;23;20134;-82
2024/03/12 08:04:15;;;;;;;63.70;32.17;;;;;;;6.91;97.50;100868.06;4959809;28;20146;-82
2024/03/12 08:06:48;;;;;;;64.72;32.67;;;;;;;6.89;96.68;100871.75;4949096;29;20051;-81
2024/03/12 08:09:24;;;;;;;60.20;29.55;;;;;;;6.94;97.11;100878.38;4949251;29;20111;-82
2024/03/12 08:11:51;;;;;;;60.25;30.73;;;;;;;6.89;97.12;100874.38;4927739;29;20060;-82
2024/03/12 08:14:26;;;;;;;69.63;31.10;;;;;;;6.92;96.65;100875.03;4937378;29;20176;-83
2024/03/12 08:16:53;;;;;;;59.55;30.75;;;;;;;6.96;97.05;100873.84;4942293;29;20062;-84
2024/03/12 08:19:25;;;;;;;53.20;28.42;;;;;;;6.97;95.63;100879.97;4937624;29;20148;-81
2024/03/12 08:21:53;;;;;;;52.60;27.90;;;;;;;6.99;95.18;100884.16;4944661;29;20051;-82
2024/03/12 08:24:23;;;;;;;58.47;29.65;;;;;;;6.99;95.51;100885.97;4944237;29;20066;-83
2024/03/12 08:26:50;;;;;;;53.55;27.63;;;;;;;7.02;94.95;100881.34;4938711;29;20079;-83
2024/03/12 08:29:16;;;;;;;54.30;27.70;;;;;;;7.05;95.21;100881.13;4934008;29;20192;-82
2024/03/12 08:31:43;;;;;;;49.55;26.05;;;;;;;7.15;95.22;100889.22;4939379;29;20056;-81
2024/03/12 08:34:15;;;;;;;52.90;27.25;;;;;;;7.00;94.73;100893.72;4933854;29;20059;-82
2024/03/12 08:36:47;;;;;;;52.88;25.88;;;;;;;7.05;94.93;100894.28;4944485;29;20048;-81
2024/03/12 08:39:15;;;;;;;50.30;25.15;;;;;;;7.07;93.83;100895.00;4947535;29;20094;-80
2024/03/12 08:41:43;;;;;;;47.58;25.35;;;;;;;7.05;94.12;100894.28;4947897;29;20078;-79
2024/03/12 08:44:10;;;;;;;47.65;25.83;;;;;;;7.07;94.21;100902.06;4938117;29;20051;-80
2024/03/12 08:46:37;;;;;;;52.00;25.65;;;;;;;7.02;94.13;100904.19;4939264;29;20147;-80
2024/03/12 08:49:05;;;;;;;46.65;24.80;;;;;;;6.99;93.89;100918.38;4943284;29;20055;-79
2024/03/12 08:51:36;;;;;;;45.42;25.70;;;;;;;7.00;93.95;100917.41;4936354;29;20142;-81
2024/03/12 08:54:03;;;;;;;42.72;23.70;;;;;;;6.98;93.83;100915.84;4940290;29;20051;-78
2024/03/12 08:56:35;;;;;;;44.90;25.10;;;;;;;7.05;93.94;100920.59;4931610;29;20085;-80
2024/03/12 08:59:07;;;;;;;48.92;24.70;;;;;;;7.01;94.49;100919.13;4924126;29;20086;-80
2024/03/12 09:01:33;;;;;;;43.13;23.38;;;;;;;7.03;92.96;100925.13;4928208;29;20438;-80
2024/03/12 09:04:02;;;;;;;46.47;24.58;;;;;;;7.12;93.38;100923.66;4943915;29;20596;-80
2024/03/12 09:06:28;;;;;;;44.30;24.48;;;;;;;7.11;93.72;100934.28;4943833;29;20052;-79
2024/03/12 09:08:55;;;;;;;47.20;24.73;;;;;;;7.21;93.64;100935.34;4930535;29;20112;-79
2024/03/12 09:11:22;;;;;;;47.28;25.48;;;;;;;7.27;93.12;100935.75;4932759;29;20055;-80
2024/03/12 09:13:54;;;;;;;44.33;23.33;;;;;;;7.30;92.34;100932.06;4924925;29;20080;-80
2024/03/12 09:16:21;;;;;;;45.72;24.23;;;;;;;7.28;92.75;100942.72;4942729;29;20094;-80
2024/03/12 09:18:48;;;;;;;43.28;25.00;;;;;;;7.30;92.05;100939.97;4943813;29;20043;-78
2024/03/12 09:21:15;;;;;;;44.50;25.52;;;;;;;7.32;92.21;100932.78;4934734;29;20130;-80
2024/03/12 09:23:42;;;;;;;41.97;25.95;;;;;;;7.36;92.35;100931.63;4930467;29;20048;-80
2024/03/12 09:26:09;;;;;;;40.53;24.88;;;;;;;7.37;92.73;100933.34;4946817;29;20130;-79
2024/03/12 09:28:40;;;;;;;43.67;26.05;;;;;;;7.44;92.38;100939.84;4944955;29;20047;-79
2024/03/12 09:31:08;;;;;;;43.40;25.55;;;;;;;7.48;91.18;100946.59;4944974;29;20056;-79
2024/03/12 09:33:35;;;;;;;42.58;25.30;;;;;;;7.52;91.94;100940.16;4939979;29;20059;-81
2024/03/12 09:36:03;;;;;;;44.63;25.58;;;;;;;7.50;92.21;100947.34;4942440;29;20475;-81
2024/03/12 09:38:35;;;;;;;41.65;25.45;;;;;;;7.52;92.35;100945.44;4937688;29;20055;-81
2024/03/12 09:41:09;;;;;;;43.95;25.77;;;;;;;7.69;92.43;100951.31;4943865;29;20071;-80
2024/03/12 09:43:43;;;;;;;46.78;25.92;;;;;;;7.74;91.96;100947.41;4936890;29;20054;-81
2024/03/12 09:46:12;;;;;;;41.70;26.13;;;;;;;7.66;91.76;100952.38;4943528;29;20578;-80
2024/03/12 09:48:39;;;;;;;44.97;25.58;;;;;;;7.67;91.78;100947.94;4941977;29;20052;-80
2024/03/12 09:51:06;;;;;;;45.05;23.83;;;;;;;7.58;90.73;100952.91;4943199;29;20055;-80
2024/03/12 09:53:33;;;;;;;42.28;25.55;;;;;;;7.59;92.03;100951.97;4923945;29;20134;-79
2024/03/12 09:56:03;;;;;;;40.65;24.00;;;;;;;7.58;91.31;100955.53;4938061;29;20051;-79
2024/03/12 09:58:30;;;;;;;44.03;24.67;;;;;;;7.50;90.86;100949.97;4939415;29;20056;-80
2024/03/12 10:00:56;;;;;;;44.53;24.48;;;;;;;7.50;91.08;100957.88;4938719;29;20183;-80
2024/03/12 10:03:25;;;;;;;40.90;23.45;;;;;;;7.50;90.47;100952.63;4932077;29;20494;-79
2024/03/12 10:05:53;;;;;;;47.55;24.15;;;;;;;7.54;89.80;100954.06;4937560;29;20055;-80
2024/03/12 10:08:28;;;;;;;43.78;23.92;;;;;;;7.57;90.69;100951.22;4939502;29;20048;-79
2024/03/12 10:11:00;;;;;;;42.70;23.17;;;;;;;7.68;88.12;100947.84;4924722;29;20052;-81
2024/03/12 10:13:28;;;;;;;41.03;23.20;;;;;;;7.87;87.92;100951.81;4923954;29;20492;-80
2024/03/12 10:15:58;;;;;;;43.65;23.50;;;;;;;8.01;87.53;100947.25;4939795;29;20055;-80
2024/03/12 10:18:29;;;;;;;39.80;23.75;;;;;;;8.11;86.27;100958.78;4936765;29;20515;-79
2024/03/12 10:21:00;;;;;;;39.90;22.95;;;;;;;8.14;85.11;100955.13;4939583;29;20059;-78
2024/03/12 10:23:28;;;;;;;39.80;23.70;;;;;;;8.15;85.17;100963.84;4951420;29;20071;-80
2024/03/12 10:26:07;;;;;;;43.05;23.15;;;;;;;7.98;85.02;100957.16;4949137;29;20056;-81
2024/03/12 10:28:35;;;;;;;38.78;23.15;;;;;;;8.05;86.01;100951.34;4943668;29;20047;-79
2024/03/12 10:31:08;;;;;;;41.15;24.55;;;;;;;8.15;85.09;100958.59;4943944;29;20052;-81
2024/03/12 10:33:37;;;;;;;37.55;24.20;;;;;;;8.10;85.99;100957.13;4925328;29;20052;-80
2024/03/12 10:36:04;;;;;;;41.58;23.92;;;;;;;8.21;84.43;100960.78;4933138;29;20047;-82
2024/03/12 10:38:32;;;;;;;40.33;24.42;;;;;;;8.10;85.21;100961.56;4940560;29;20507;-81
2024/03/12 10:41:16;;;;;;;47.60;25.70;;;;;;;8.05;84.85;100964.53;4931526;29;20055;-81
2024/03/12 10:43:43;;;;;;;39.75;25.23;;;;;;;8.04;85.33;100962.84;4947477;29;20058;-79
2024/03/12 10:46:11;;;;;;;42.50;25.02;;;;;;;8.07;85.75;100962.59;4948525;29;20055;-81
2024/03/12 10:48:40;;;;;;;47.28;26.20;;;;;;;8.09;84.34;100966.00;4936593;29;20472;-80
2024/03/12 10:51:12;;;;;;;43.08;24.98;;;;;;;8.08;83.94;100964.31;4944480;29;20075;-85
2024/03/12 10:53:39;;;;;;;45.38;27.08;;;;;;;8.08;84.33;100966.94;4933112;29;20076;-80
2024/03/12 10:56:06;;;;;;;42.22;26.17;;;;;;;8.26;83.51;100967.41;4931624;29;20123;-80
2024/03/12 10:58:37;;;;;;;43.03;26.88;;;;;;;8.33;83.65;100978.34;4934820;29;20541;-80
2024/03/12 11:01:09;;;;;;;40.53;24.55;;;;;;;8.40;83.59;100977.00;4935945;29;20051;-80
2024/03/12 11:03:36;;;;;;;45.33;26.60;;;;;;;8.39;83.65;100977.91;4922965;29;20048;-81
2024/03/12 11:06:07;;;;;;;44.42;25.85;;;;;;;8.52;83.96;100980.50;4924220;29;20068;-80
2024/03/12 11:08:34;;;;;;;47.65;25.67;;;;;;;8.54;84.15;100983.91;4927615;29;20094;-80
2024/03/12 11:11:02;;;;;;;47.90;26.33;;;;;;;8.56;83.25;100985.44;4943061;29;20116;-80
2024/03/12 11:13:32;;;;;;;46.50;27.85;;;;;;;8.64;83.89;100982.25;4942870;29;20051;-79
2024/03/12 11:16:01;;;;;;;42.25;26.67;;;;;;;8.68;82.38;100988.16;4942512;29;20052;-80
2024/03/12 11:18:35;;;;;;;45.33;27.00;;;;;;;8.77;81.79;100982.19;4931882;29;20087;-80
2024/03/12 11:21:03;;;;;;;42.88;26.60;;;;;;;8.71;81.87;100988.78;4937838;29;20059;-79
2024/03/12 11:23:31;;;;;;;43.40;26.88;;;;;;;8.96;81.90;100987.78;4941045;29;20514;-79
2024/03/12 11:25:59;;;;;;;45.15;27.50;;;;;;;9.20;80.74;100984.25;4942191;29;20574;-80
2024/03/12 11:28:27;;;;;;;45.33;26.70;;;;;;;9.19;80.27;100982.56;4942387;29;20047;-80
2024/03/12 11:31:01;;;;;;;43.05;25.98;;;;;;;9.34;79.88;100984.06;4941761;29;20079;-80
2024/03/12 11:33:49;;;;;;;43.88;25.30;;;;;;;9.28;79.83;100974.78;4942060;29;20048;-80
2024/03/12 11:36:34;;;;;;;42.78;26.88;;;;;;;9.36;78.86;100984.75;4941441;29;20048;-79
2024/03/12 11:39:11;;;;;;;44.72;26.17;;;;;;;9.23;78.42;100984.00;4934374;29;20044;-80
2024/03/12 11:42:14;;;;;;;41.22;25.30;;;;;;;9.00;79.30;100983.94;4935649;29;20051;-80
2024/03/12 11:44:53;;;;;;;41.00;25.02;;;;;;;8.95;79.60;100983.47;4940930;29;20055;-79
2024/03/12 11:47:29;;;;;;;42.25;25.60;;;;;;;8.96;78.14;100985.13;4938680;29;20139;-79
2024/03/12 11:49:56;;;;;;;40.85;25.60;;;;;;;9.06;78.23;100985.28;4927541;29;20043;-79
2024/03/12 11:52:27;;;;;;;41.90;25.92;;;;;;;9.15;78.00;100978.47;4931272;29;20121;-79
2024/03/12 11:54:55;;;;;;;40.20;25.50;;;;;;;9.49;76.95;100980.22;4922898;29;20087;-78
2024/03/12 11:57:25;;;;;;;41.35;25.35;;;;;;;9.69;76.00;100972.53;4922737;29;20108;-79
2024/03/12 11:59:54;;;;;;;39.05;24.25;;;;;;;9.93;76.37;100973.25;4936901;29;20071;-79
2024/03/12 12:02:26;;;;;;;41.42;24.73;;;;;;;10.18;72.37;100972.16;4939705;29;20055;-78
2024/03/12 12:04:54;;;;;;;44.50;26.75;;;;;;;10.20;71.95;100966.72;4939500;29;20495;-78
2024/03/12 12:07:24;;;;;;;43.95;24.88;;;;;;;10.53;69.46;100966.66;4936010;29;20103;-78
2024/03/12 12:09:53;;;;;;;41.53;25.73;;;;;;;10.61;71.20;100966.88;4944540;29;20526;-79
2024/03/12 12:12:38;;;;;;;40.13;24.60;;;;;;;10.73;70.45;100972.97;4933917;29;20055;-79
2024/03/12 12:15:11;;;;;;;38.78;23.92;;;;;;;10.53;70.24;100966.66;4933835;29;20052;-81
2024/03/12 12:17:52;;;;;;;39.15;24.30;;;;;;;10.71;69.88;100963.47;4930094;29;20444;-79
2024/03/12 12:20:22;;;;;;;41.35;24.92;;;;;;;10.72;69.54;100959.88;4930290;29;20055;-80
2024/03/12 12:23:23;;;;;;;45.50;24.60;;;;;;;10.86;69.89;100951.63;4940044;29;20052;-84
2024/03/12 12:26:24;;;;;;;39.63;24.05;;;;;;;10.94;69.04;100957.13;4945980;29;20056;-81
2024/03/12 12:29:33;;;;;;;36.80;25.65;;;;;;;10.96;66.65;100947.22;4940923;29;20162;-80
2024/03/12 12:32:20;;;;;;;41.58;25.15;;;;;;;10.58;68.57;100950.41;4932909;29;20135;-78
2024/03/12 12:34:47;;;;;;;40.03;24.98;;;;;;;10.69;66.45;100947.72;4930914;29;20055;-79
2024/03/12 12:37:25;;;;;;;39.42;24.38;;;;;;;10.67;69.11;100940.84;4944071;29;20447;-78
2024/03/12 12:39:58;;;;;;;42.25;24.80;;;;;;;10.77;69.21;100945.28;4936754;29;20052;-79
2024/03/12 12:42:43;;;;;;;41.35;25.30;;;;;;;10.76;68.98;100934.81;4942176;29;20055;-79
2024/03/12 12:45:18;;;;;;;40.45;23.58;;;;;;;10.78;67.56;100938.19;4940640;29;20494;-77
2024/03/12 12:47:50;;;;;;;35.67;22.65;;;;;;;10.93;65.73;100941.34;4939412;29;20051;-80
2024/03/12 12:56:31;;;;;;;37.65;23.08;;;;;;;10.87;67.29;100943.53;4942760;29;20366;-81
2024/03/12 12:59:23;;;;;;;37.85;22.58;;;;;;;10.72;67.76;100934.25;4938083;29;20055;-82
2024/03/12 13:02:01;;;;;;;42.38;25.42;;;;;;;10.76;67.92;100942.75;4931073;29;20380;-81
2024/03/12 13:04:35;;;;;;;40.95;24.85;;;;;;;10.78;66.76;100939.00;4931200;29;20068;-79
2024/03/12 13:07:10;;;;;;;39.67;24.05;;;;;;;10.59;68.02;100944.16;4935633;29;20139;-82
2024/03/12 13:09:37;;;;;;;41.63;24.38;;;;;;;10.53;69.14;100942.84;4939142;29;20060;-85
2024/03/12 13:12:11;;;;;;;44.85;26.00;;;;;;;10.65;68.28;100940.16;4945231;29;20112;-80
2024/03/12 13:14:56;;;;;;;40.88;25.17;;;;;;;10.50;68.57;100942.28;4941951;29;20150;-81
2024/03/12 13:17:29;;;;;;;35.83;22.52;;;;;;;10.42;67.90;100932.31;4942119;29;20107;-81
2024/03/12 13:20:03;;;;;;;42.45;25.25;;;;;;;10.38;69.23;100930.88;4933350;29;20463;-77
2024/03/12 13:22:43;;;;;;;42.35;24.42;;;;;;;10.18;69.88;100945.72;4947059;29;20051;-80
2024/03/12 13:25:22;;;;;;;40.97;24.77;;;;;;;10.07;70.11;100943.06;4937937;29;20052;-80